Time;durP1;ratioP1;P1;durP2;ratioP2;P2;SDS_P1;SDS_P2;PMS_P1;PMS_P2;Temp;Humidity;BMP_temperature;BMP_pressure;BME280_temperature;BME280_humidity;BME280_pressure;Samples;Min_cycle;Max_cycle;Signal;HPM_P1;HPM_P2
2022/06/13 00:00:53;;;;;;;4.80;3.33;;;;;;;;;;5094215;28;20467;-65
2022/06/13 00:03:19;;;;;;;7.38;3.30;;;;;;;;;;5094096;28;20123;-66
2022/06/13 00:05:45;;;;;;;3.83;3.22;;;;;;;;;;5094522;28;20081;-68
2022/06/13 00:08:11;;;;;;;4.20;3.35;;;;;;;;;;5094119;28;20093;-72
2022/06/13 00:10:37;;;;;;;6.40;3.40;;;;;;;;;;5094376;28;20060;-69
2022/06/13 00:13:04;;;;;;;6.40;3.13;;;;;;;;;;5094029;28;20387;-70
2022/06/13 00:15:30;;;;;;;4.97;3.10;;;;;;;;;;5092833;28;20023;-68
2022/06/13 00:17:56;;;;;;;5.15;3.40;;;;;;;;;;5093978;28;20024;-69
2022/06/13 00:20:22;;;;;;;4.00;3.22;;;;;;;;;;5092410;28;20356;-66
2022/06/13 00:22:47;;;;;;;4.00;3.17;;;;;;;;;;5093766;28;20114;-74
2022/06/13 00:25:14;;;;;;;6.28;3.45;;;;;;;;;;5093532;28;20107;-71
2022/06/13 00:27:39;;;;;;;4.70;3.50;;;;;;;;;;5093818;28;20120;-73
2022/06/13 00:30:09;;;;;;;10.05;3.88;;;;;;;;;;5093769;28;20095;-73
2022/06/13 00:32:35;;;;;;;8.75;3.60;;;;;;;;;;5093545;28;20077;-65
2022/06/13 00:35:02;;;;;;;6.68;3.60;;;;;;;;;;5093550;28;20024;-65
2022/06/13 00:37:28;;;;;;;4.20;3.45;;;;;;;;;;5093615;28;20382;-66
2022/06/13 00:39:54;;;;;;;9.75;3.65;;;;;;;;;;5093670;28;20113;-65
2022/06/13 00:42:23;;;;;;;5.95;3.72;;;;;;;;;;5093437;28;20452;-68
2022/06/13 00:45:10;;;;;;;4.38;3.20;;;;;;;;;;5093264;28;20097;-66
2022/06/13 00:47:39;;;;;;;4.95;3.28;;;;;;;;;;5093504;28;20036;-66
2022/06/13 00:50:09;;;;;;;4.45;3.22;;;;;;;;;;5092556;28;20024;-65
2022/06/13 00:52:46;;;;;;;4.45;3.30;;;;;;;;;;5093311;28;20074;-65
2022/06/13 00:55:16;;;;;;;5.03;3.13;;;;;;;;;;5092826;28;20394;-65
2022/06/13 00:57:42;;;;;;;5.13;3.40;;;;;;;;;;5093330;28;20036;-67
2022/06/13 01:00:12;;;;;;;3.95;3.42;;;;;;;;;;5093179;28;20382;-66
2022/06/13 01:02:41;;;;;;;3.67;3.25;;;;;;;;;;5093188;28;20482;-69
2022/06/13 01:05:09;;;;;;;5.47;3.35;;;;;;;;;;5092913;28;20111;-67
2022/06/13 01:07:36;;;;;;;6.47;3.60;;;;;;;;;;5092783;28;20025;-67
2022/06/13 01:12:51;;;;;;;5.35;3.00;;;;;;;;;;5092891;28;20032;-66
2022/06/13 01:15:48;;;;;;;5.35;3.10;;;;;;;;;;5092846;28;20106;-66
2022/06/13 01:18:42;;;;;;;4.75;3.58;;;;;;;;;;5092908;28;20040;-66
2022/06/13 01:21:44;;;;;;;5.68;3.33;;;;;;;;;;5092736;28;20434;-66
2022/06/13 01:24:22;;;;;;;4.90;3.83;;;;;;;;;;5092449;28;20032;-65
2022/06/13 01:27:03;;;;;;;6.90;4.13;;;;;;;;;;5092840;28;20028;-66
2022/06/13 01:29:44;;;;;;;5.80;3.60;;;;;;;;;;5092864;28;20032;-65
2022/06/13 01:32:37;;;;;;;5.75;3.60;;;;;;;;;;5092466;28;20064;-67
2022/06/13 01:35:06;;;;;;;;;;;;;;;;;;5092867;28;20082;-66
2022/06/13 01:38:04;;;;;;;5.45;3.50;;;;;;;;;;5092665;28;19912;-66
2022/06/13 01:41:03;;;;;;;4.68;4.13;;;;;;;;;;5092605;28;20453;-66
2022/06/13 01:43:45;;;;;;;5.82;4.10;;;;;;;;;;5092037;28;20461;-66
2022/06/13 01:46:20;;;;;;;4.53;3.60;;;;;;;;;;5092054;28;20095;-66
2022/06/13 01:49:08;;;;;;;7.53;4.82;;;;;;;;;;5092622;28;20028;-68
2022/06/13 01:52:00;;;;;;;6.00;4.13;;;;;;;;;;5092654;28;20040;-65
2022/06/13 01:54:35;;;;;;;4.65;3.70;;;;;;;;;;5092216;28;20044;-71
2022/06/13 01:57:16;;;;;;;4.72;3.70;;;;;;;;;;5091928;28;20055;-70
2022/06/13 02:00:01;;;;;;;4.78;3.92;;;;;;;;;;5091945;28;20127;-71
2022/06/13 02:02:40;;;;;;;6.40;4.22;;;;;;;;;;5092069;28;20047;-69
2022/06/13 02:05:15;;;;;;;7.57;4.13;;;;;;;;;;5092328;28;20032;-72
2022/06/13 02:07:50;;;;;;;6.30;4.00;;;;;;;;;;5091301;28;20059;-71
2022/06/13 02:10:20;;;;;;;10.07;4.47;;;;;;;;;;5091721;28;20040;-66
2022/06/13 02:12:51;;;;;;;5.80;4.00;;;;;;;;;;5091844;28;20077;-67
2022/06/13 02:15:39;;;;;;;6.30;4.25;;;;;;;;;;5091881;28;20081;-66
2022/06/13 02:18:12;;;;;;;9.93;4.25;;;;;;;;;;5090101;28;20135;-65
2022/06/13 02:20:42;;;;;;;4.32;3.90;;;;;;;;;;5091117;28;20446;-65
2022/06/13 02:23:12;;;;;;;5.15;3.88;;;;;;;;;;5079026;28;20059;-65
2022/06/13 02:26:04;;;;;;;5.97;4.10;;;;;;;;;;5071817;28;20035;-66
2022/06/13 02:28:35;;;;;;;8.48;3.85;;;;;;;;;;5071716;28;20060;-66
2022/06/13 02:31:17;;;;;;;6.40;3.92;;;;;;;;;;5070210;28;20037;-66
2022/06/13 02:34:04;;;;;;;6.10;3.67;;;;;;;;;;5077740;28;20040;-65
2022/06/13 02:36:35;;;;;;;6.20;3.95;;;;;;;;;;5091033;28;20586;-66
2022/06/13 02:39:25;;;;;;;6.78;4.38;;;;;;;;;;5073615;28;20112;-66
2022/06/13 02:42:03;;;;;;;6.70;4.55;;;;;;;;;;5071173;28;20063;-67
2022/06/13 02:44:41;;;;;;;9.27;5.05;;;;;;;;;;5071415;28;20052;-66
2022/06/13 02:47:13;;;;;;;5.05;3.97;;;;;;;;;;5071102;28;20082;-67
2022/06/13 02:49:43;;;;;;;5.25;4.20;;;;;;;;;;5071043;28;20041;-66
2022/06/13 02:52:42;;;;;;;10.30;4.30;;;;;;;;;;5081643;28;20505;-66
2022/06/13 02:55:11;;;;;;;4.35;3.50;;;;;;;;;;5088343;28;20460;-66
2022/06/13 02:57:58;;;;;;;5.88;3.80;;;;;;;;;;5091168;28;20082;-66
2022/06/13 03:00:35;;;;;;;14.57;4.65;;;;;;;;;;5091375;28;20382;-66
2022/06/13 03:03:28;;;;;;;4.95;4.13;;;;;;;;;;5091173;28;20482;-65
2022/06/13 03:05:57;;;;;;;6.07;3.83;;;;;;;;;;5091124;28;20115;-66
2022/06/13 03:08:44;;;;;;;4.68;4.18;;;;;;;;;;5090944;28;20035;-66
2022/06/13 03:11:39;;;;;;;5.68;4.10;;;;;;;;;;5090658;28;20024;-69
2022/06/13 03:14:08;;;;;;;8.45;3.97;;;;;;;;;;5089469;28;20428;-67
2022/06/13 03:17:05;;;;;;;5.18;4.43;;;;;;;;;;5087801;28;20419;-65
2022/06/13 03:19:39;;;;;;;7.55;4.07;;;;;;;;;;5094540;28;20119;-66
2022/06/13 03:22:15;;;;;;;9.50;4.22;;;;;;;;;;5095047;28;20127;-66
2022/06/13 03:25:01;;;;;;;6.88;4.20;;;;;;;;;;5095221;28;20039;-66
2022/06/13 03:27:33;;;;;;;5.68;4.35;;;;;;;;;;5094686;28;20471;-67
2022/06/13 03:30:12;;;;;;;5.80;4.18;;;;;;;;;;5094685;28;20107;-66
2022/06/13 03:32:44;;;;;;;8.52;4.28;;;;;;;;;;5094808;28;20069;-65
2022/06/13 03:35:13;;;;;;;9.50;4.28;;;;;;;;;;5093562;28;20490;-65
2022/06/13 03:37:44;;;;;;;10.75;4.55;;;;;;;;;;5094522;28;20380;-66
2022/06/13 03:40:17;;;;;;;6.28;4.38;;;;;;;;;;5094646;28;20161;-67
2022/06/13 03:42:50;;;;;;;7.82;4.30;;;;;;;;;;5094432;28;20032;-72
2022/06/13 03:45:22;;;;;;;10.43;4.28;;;;;;;;;;5094515;28;20463;-70
2022/06/13 03:48:08;;;;;;;5.73;3.63;;;;;;;;;;5094904;28;20032;-68
2022/06/13 03:50:49;;;;;;;8.55;3.78;;;;;;;;;;5092723;28;20283;-66
2022/06/13 03:53:21;;;;;;;4.68;3.70;;;;;;;;;;5074216;28;20502;-66
2022/06/13 03:56:17;;;;;;;7.03;3.90;;;;;;;;;;5073202;28;20472;-66
2022/06/13 03:58:58;;;;;;;4.75;3.50;;;;;;;;;;5072916;28;20056;-66
2022/06/13 04:01:34;;;;;;;8.68;3.80;;;;;;;;;;5074025;28;20074;-64
2022/06/13 04:04:01;;;;;;;7.15;3.35;;;;;;;;;;5074122;28;20035;-66
2022/06/13 04:06:34;;;;;;;5.20;3.20;;;;;;;;;;5074045;28;20024;-64
2022/06/13 04:09:03;;;;;;;5.20;3.28;;;;;;;;;;5073366;28;20025;-67
2022/06/13 04:12:06;;;;;;;4.95;3.33;;;;;;;;;;5073231;28;20032;-66
2022/06/13 04:14:56;;;;;;;3.95;3.30;;;;;;;;;;5073432;28;20032;-65
2022/06/13 04:17:58;;;;;;;4.88;3.17;;;;;;;;;;5073547;28;20033;-67
2022/06/13 04:20:45;;;;;;;6.18;3.30;;;;;;;;;;5073325;28;20075;-66
2022/06/13 04:24:05;;;;;;;5.25;3.38;;;;;;;;;;5073412;28;20376;-66
2022/06/13 04:26:42;;;;;;;3.00;2.65;;;;;;;;;;5031143;28;20133;-67
2022/06/13 04:29:19;;;;;;;3.45;3.15;;;;;;;;;;5072854;28;20040;-65
2022/06/13 04:31:46;;;;;;;5.13;3.00;;;;;;;;;;5073408;28;20120;-67
2022/06/13 04:34:15;;;;;;;4.85;3.05;;;;;;;;;;5073593;28;20082;-66
2022/06/13 04:36:44;;;;;;;6.57;3.42;;;;;;;;;;5073435;28;20029;-65
2022/06/13 04:39:13;;;;;;;5.15;3.28;;;;;;;;;;5072667;28;20414;-65
2022/06/13 04:41:43;;;;;;;4.90;3.10;;;;;;;;;;5072679;28;20798;-66
2022/06/13 04:44:15;;;;;;;3.75;2.75;;;;;;;;;;5073540;28;20111;-67
2022/06/13 04:46:42;;;;;;;6.03;3.07;;;;;;;;;;5074442;28;20057;-65
2022/06/13 04:49:21;;;;;;;4.03;3.00;;;;;;;;;;5074215;28;20154;-66
2022/06/13 04:51:48;;;;;;;4.28;2.95;;;;;;;;;;5072901;28;20043;-66
2022/06/13 04:54:37;;;;;;;2.92;2.63;;;;;;;;;;5074365;28;20024;-66
2022/06/13 04:57:04;;;;;;;3.35;2.70;;;;;;;;;;5074148;28;20032;-66
2022/06/13 04:59:30;;;;;;;5.63;2.90;;;;;;;;;;5074106;28;20078;-65
2022/06/13 05:01:57;;;;;;;7.57;3.13;;;;;;;;;;5073962;28;20043;-65
2022/06/13 05:04:29;;;;;;;3.50;2.72;;;;;;;;;;5073985;28;20025;-65
2022/06/13 05:07:17;;;;;;;4.50;2.90;;;;;;;;;;5073898;28;20119;-65
2022/06/13 05:09:49;;;;;;;5.10;2.58;;;;;;;;;;5073889;28;20152;-67
2022/06/13 05:12:19;;;;;;;4.20;3.42;;;;;;;;;;5076043;28;20040;-66
2022/06/13 05:14:51;;;;;;;4.30;3.15;;;;;;;;;;5075161;28;20155;-65
2022/06/13 05:17:29;;;;;;;3.42;2.70;;;;;;;;;;5073873;28;20036;-64
2022/06/13 05:20:08;;;;;;;4.47;2.63;;;;;;;;;;5073821;28;20033;-67
2022/06/13 05:23:00;;;;;;;3.92;2.70;;;;;;;;;;5072248;28;20040;-65
2022/06/13 05:25:47;;;;;;;4.43;2.58;;;;;;;;;;5073246;28;20498;-68
2022/06/13 05:28:16;;;;;;;4.07;2.40;;;;;;;;;;5073280;28;20040;-69
2022/06/13 05:30:48;;;;;;;6.25;2.67;;;;;;;;;;5073440;28;20029;-72
2022/06/13 05:33:18;;;;;;;6.80;2.13;;;;;;;;;;5073338;28;20446;-72
2022/06/13 05:35:45;;;;;;;3.70;2.38;;;;;;;;;;5073445;28;20029;-69
2022/06/13 05:38:19;;;;;;;2.90;2.47;;;;;;;;;;5067014;28;20028;-72
2022/06/13 05:40:45;;;;;;;5.78;2.63;;;;;;;;;;5052592;28;20048;-70
2022/06/13 05:43:12;;;;;;;5.57;2.67;;;;;;;;;;5052610;28;20025;-71
2022/06/13 05:45:40;;;;;;;4.75;2.65;;;;;;;;;;5053219;28;20077;-67
2022/06/13 05:48:11;;;;;;;2.90;2.38;;;;;;;;;;5053253;28;20021;-73
2022/06/13 05:50:37;;;;;;;2.67;2.40;;;;;;;;;;5052973;28;20029;-71
2022/06/13 05:53:03;;;;;;;3.88;2.70;;;;;;;;;;5052573;28;20494;-70
2022/06/13 05:55:29;;;;;;;4.00;2.30;;;;;;;;;;5052826;28;20036;-70
2022/06/13 05:57:55;;;;;;;3.40;2.35;;;;;;;;;;5052760;28;20021;-70
2022/06/13 06:00:25;;;;;;;3.67;2.15;;;;;;;;;;5052716;28;20434;-75
2022/06/13 06:02:51;;;;;;;4.07;2.40;;;;;;;;;;5051283;28;20456;-68
2022/06/13 06:05:17;;;;;;;4.03;2.45;;;;;;;;;;5052491;28;20096;-71
2022/06/13 06:07:43;;;;;;;6.20;2.45;;;;;;;;;;5052682;28;20060;-70
2022/06/13 06:10:18;;;;;;;4.10;2.20;;;;;;;;;;5072483;28;20441;-72
2022/06/13 06:12:44;;;;;;;3.72;2.60;;;;;;;;;;5072279;28;20036;-71
2022/06/13 06:15:10;;;;;;;5.63;2.65;;;;;;;;;;5071976;28;20032;-71
2022/06/13 06:17:36;;;;;;;3.65;2.53;;;;;;;;;;5072384;28;20037;-70
2022/06/13 06:20:03;;;;;;;3.08;2.25;;;;;;;;;;5072452;28;20050;-71
2022/06/13 06:22:29;;;;;;;3.90;2.22;;;;;;;;;;5072184;28;20072;-73
2022/06/13 06:24:55;;;;;;;4.53;2.58;;;;;;;;;;5072273;28;20058;-76
2022/06/13 06:27:21;;;;;;;3.30;2.42;;;;;;;;;;5072273;28;20033;-77
2022/06/13 06:29:47;;;;;;;2.92;2.47;;;;;;;;;;5073004;28;20471;-77
2022/06/13 06:32:12;;;;;;;4.10;2.40;;;;;;;;;;5071344;28;20051;-73
2022/06/13 06:34:38;;;;;;;5.15;2.80;;;;;;;;;;5071329;28;20028;-77
2022/06/13 06:37:04;;;;;;;5.05;3.20;;;;;;;;;;5070409;28;20040;-74
2022/06/13 06:39:30;;;;;;;4.03;2.60;;;;;;;;;;5071819;28;20071;-83
2022/06/13 06:41:56;;;;;;;7.95;3.50;;;;;;;;;;5071831;28;20028;-79
2022/06/13 06:44:22;;;;;;;4.18;2.67;;;;;;;;;;5071707;28;20048;-81
2022/06/13 06:46:48;;;;;;;5.03;2.70;;;;;;;;;;5072063;28;20032;-76
2022/06/13 06:49:14;;;;;;;7.05;2.58;;;;;;;;;;5071828;28;20060;-75
2022/06/13 06:51:44;;;;;;;4.25;2.50;;;;;;;;;;5066224;28;20032;-68
2022/06/13 06:59:54;;;;;;;4.82;2.63;;;;;;;;;;5056088;28;20103;-83
2022/06/13 07:02:23;;;;;;;2.70;2.33;;;;;;;;;;5056148;28;20536;-71
2022/06/13 07:05:03;;;;;;;4.97;2.58;;;;;;;;;;5055879;28;20471;-73
2022/06/13 07:07:30;;;;;;;6.95;2.90;;;;;;;;;;5057902;28;20103;-73
2022/06/13 07:09:56;;;;;;;7.32;3.28;;;;;;;;;;5056208;28;20025;-71
2022/06/13 07:12:22;;;;;;;4.25;2.63;;;;;;;;;;5055748;28;20044;-72
2022/06/13 07:14:48;;;;;;;5.05;2.67;;;;;;;;;;5055886;28;20028;-77
2022/06/13 07:17:14;;;;;;;3.80;2.83;;;;;;;;;;5055909;28;20033;-75
2022/06/13 07:19:44;;;;;;;3.65;2.53;;;;;;;;;;5055292;28;20025;-74
2022/06/13 07:22:18;;;;;;;4.45;2.80;;;;;;;;;;5055320;28;20041;-76
2022/06/13 07:24:45;;;;;;;3.53;2.60;;;;;;;;;;5064003;28;20028;-73
2022/06/13 07:27:13;;;;;;;5.82;2.50;;;;;;;;;;5064828;28;20510;-75
2022/06/13 07:29:40;;;;;;;3.25;2.40;;;;;;;;;;5075327;28;20032;-77
2022/06/13 07:32:17;;;;;;;3.90;2.70;;;;;;;;;;5074582;28;20032;-77
2022/06/13 07:34:45;;;;;;;3.38;2.40;;;;;;;;;;5075560;28;20486;-78
2022/06/13 07:38:16;;;;;;;4.28;2.55;;;;;;;;;;5075453;28;20475;-76
2022/06/13 07:40:00;;;;;;;6.10;2.60;;;;;;;;;;5075210;28;20123;-77
2022/06/13 07:42:26;;;;;;;5.18;2.75;;;;;;;;;;5074978;28;20163;-77
2022/06/13 07:44:52;;;;;;;3.13;2.05;;;;;;;;;;5074696;28;20040;-79
2022/06/13 07:47:20;;;;;;;4.70;2.40;;;;;;;;;;5074877;28;20024;-75
2022/06/13 07:49:46;;;;;;;4.68;2.45;;;;;;;;;;5075082;28;20038;-77
2022/06/13 07:52:12;;;;;;;3.22;2.50;;;;;;;;;;5074729;28;20371;-76
2022/06/13 07:54:37;;;;;;;3.30;2.33;;;;;;;;;;5074529;28;20395;-72
2022/06/13 07:57:04;;;;;;;6.07;2.70;;;;;;;;;;5074812;28;20352;-76
2022/06/13 07:59:30;;;;;;;3.83;2.45;;;;;;;;;;5073564;28;20404;-79
2022/06/13 08:01:58;;;;;;;6.35;2.70;;;;;;;;;;5074761;28;20046;-77
2022/06/13 08:04:24;;;;;;;5.00;2.63;;;;;;;;;;5073737;28;20040;-78
2022/06/13 08:06:49;;;;;;;3.53;2.45;;;;;;;;;;5074948;28;20029;-75
2022/06/13 08:09:15;;;;;;;3.35;2.08;;;;;;;;;;5074388;28;20082;-74
2022/06/13 08:11:46;;;;;;;3.15;2.20;;;;;;;;;;5074506;28;20025;-76
2022/06/13 08:14:12;;;;;;;3.97;2.00;;;;;;;;;;5074431;28;20032;-76
2022/06/13 08:16:39;;;;;;;3.30;2.00;;;;;;;;;;5074543;28;20357;-77
2022/06/13 08:19:05;;;;;;;3.28;2.13;;;;;;;;;;5074690;28;20047;-75
2022/06/13 08:21:35;;;;;;;2.67;2.05;;;;;;;;;;5074476;28;20526;-74
2022/06/13 08:24:01;;;;;;;2.83;1.90;;;;;;;;;;5074523;28;20536;-78
2022/06/13 08:26:27;;;;;;;2.38;2.05;;;;;;;;;;5074666;28;20490;-78
2022/06/13 08:28:54;;;;;;;4.15;2.47;;;;;;;;;;5074363;28;20044;-77
2022/06/13 08:31:20;;;;;;;4.47;2.05;;;;;;;;;;5074321;28;20039;-75
2022/06/13 08:33:47;;;;;;;4.90;1.95;;;;;;;;;;5074304;28;20033;-75
2022/06/13 08:36:13;;;;;;;5.50;2.00;;;;;;;;;;5074329;28;20028;-76
2022/06/13 08:38:39;;;;;;;26.70;5.32;;;;;;;;;;5074184;28;20029;-76
2022/06/13 08:41:10;;;;;;;7.65;2.60;;;;;;;;;;5074002;28;20332;-77
2022/06/13 08:43:52;;;;;;;3.65;2.20;;;;;;;;;;5073927;28;20085;-73
2022/06/13 08:46:43;;;;;;;3.75;2.10;;;;;;;;;;5073869;28;20582;-73
2022/06/13 08:49:16;;;;;;;7.25;2.20;;;;;;;;;;5073613;28;20544;-71
2022/06/13 08:52:04;;;;;;;6.65;2.70;;;;;;;;;;5073299;28;20060;-71
2022/06/13 08:54:34;;;;;;;3.03;2.30;;;;;;;;;;5073909;28;20560;-71
2022/06/13 08:57:08;;;;;;;3.63;2.40;;;;;;;;;;5073698;28;20029;-71
2022/06/13 08:59:44;;;;;;;3.78;2.72;;;;;;;;;;5072857;28;20028;-73
2022/06/13 09:02:17;;;;;;;5.10;2.30;;;;;;;;;;5074121;28;20037;-78
2022/06/13 09:04:59;;;;;;;3.72;2.30;;;;;;;;;;5073866;28;20379;-70
2022/06/13 09:07:32;;;;;;;3.47;2.28;;;;;;;;;;5073487;28;20110;-72
2022/06/13 09:10:09;;;;;;;3.08;2.15;;;;;;;;;;5073690;28;20029;-74
2022/06/13 09:13:02;;;;;;;5.75;2.35;;;;;;;;;;5073564;28;20040;-73
2022/06/13 09:15:35;;;;;;;3.72;2.50;;;;;;;;;;5073314;28;20040;-73
2022/06/13 09:18:09;;;;;;;4.75;2.10;;;;;;;;;;5073428;28;20504;-77
2022/06/13 09:20:58;;;;;;;4.25;1.88;;;;;;;;;;5073383;28;20495;-77
2022/06/13 09:23:37;;;;;;;2.85;1.92;;;;;;;;;;5072922;28;20104;-74
2022/06/13 09:26:08;;;;;;;2.50;2.03;;;;;;;;;;5073469;28;20040;-76
2022/06/13 09:28:52;;;;;;;3.15;2.10;;;;;;;;;;5073098;28;20459;-75
2022/06/13 09:31:28;;;;;;;4.97;2.38;;;;;;;;;;5073040;28;20479;-78
2022/06/13 09:34:03;;;;;;;4.68;1.92;;;;;;;;;;5072867;28;20067;-76
2022/06/13 09:36:34;;;;;;;4.88;2.60;;;;;;;;;;5072847;28;20041;-75
2022/06/13 09:39:05;;;;;;;4.28;2.20;;;;;;;;;;5072866;28;20028;-70
2022/06/13 09:42:18;;;;;;;4.22;2.08;;;;;;;;;;5073137;28;20487;-77
2022/06/13 09:45:06;;;;;;;5.82;2.33;;;;;;;;;;5064132;28;20054;-74
2022/06/13 09:47:40;;;;;;;5.22;2.17;;;;;;;;;;5072766;28;20094;-74
2022/06/13 09:50:45;;;;;;;3.97;1.88;;;;;;;;;;5071847;28;20128;-76
2022/06/13 09:53:15;;;;;;;3.85;2.00;;;;;;;;;;5071480;28;20040;-76
2022/06/13 09:55:53;;;;;;;5.15;2.42;;;;;;;;;;5072282;28;20039;-73
2022/06/13 09:58:58;;;;;;;4.10;1.75;;;;;;;;;;5072628;28;20055;-75
2022/06/13 10:01:45;;;;;;;3.88;2.00;;;;;;;;;;5072491;28;20047;-75
2022/06/13 10:04:36;;;;;;;9.88;3.00;;;;;;;;;;5072796;28;20071;-72
2022/06/13 10:07:20;;;;;;;5.40;2.00;;;;;;;;;;5073029;28;20081;-73
2022/06/13 10:10:01;;;;;;;5.43;2.35;;;;;;;;;;5072551;28;20096;-74
2022/06/13 10:12:51;;;;;;;8.27;2.17;;;;;;;;;;5072389;28;20046;-75
2022/06/13 10:15:19;;;;;;;3.58;2.03;;;;;;;;;;5072235;28;20033;-72
2022/06/13 10:17:52;;;;;;;8.57;1.90;;;;;;;;;;5071165;28;20077;-74
2022/06/13 10:20:24;;;;;;;3.17;1.73;;;;;;;;;;5071390;28;20036;-71
2022/06/13 10:22:59;;;;;;;5.00;2.17;;;;;;;;;;5072587;28;20055;-73
2022/06/13 10:25:31;;;;;;;3.30;2.00;;;;;;;;;;5072436;28;20064;-70
2022/06/13 10:28:05;;;;;;;2.95;1.90;;;;;;;;;;5071394;28;20036;-73
2022/06/13 10:31:08;;;;;;;5.05;2.00;;;;;;;;;;5072370;28;20539;-70
2022/06/13 10:33:52;;;;;;;5.57;1.80;;;;;;;;;;5072055;28;20089;-71
2022/06/13 10:36:22;;;;;;;2.83;1.83;;;;;;;;;;5062771;28;20469;-71
2022/06/13 10:39:00;;;;;;;5.13;2.22;;;;;;;;;;5059526;28;20086;-71
2022/06/13 10:41:28;;;;;;;3.45;2.00;;;;;;;;;;5053307;28;20033;-70
2022/06/13 10:43:56;;;;;;;3.80;2.05;;;;;;;;;;5051931;28;20467;-71
2022/06/13 10:46:22;;;;;;;2.72;1.70;;;;;;;;;;5052021;28;20040;-71
2022/06/13 10:48:55;;;;;;;2.85;1.80;;;;;;;;;;5050756;28;20025;-72
2022/06/13 10:51:22;;;;;;;5.70;2.10;;;;;;;;;;5052831;28;20041;-73
2022/06/13 10:53:52;;;;;;;4.18;2.00;;;;;;;;;;5053710;28;20036;-77
2022/06/13 10:56:22;;;;;;;9.98;3.00;;;;;;;;;;5052052;28;20116;-77
2022/06/13 10:58:55;;;;;;;3.55;2.25;;;;;;;;;;5061082;28;20111;-71
2022/06/13 11:01:24;;;;;;;4.75;2.30;;;;;;;;;;5053121;28;20040;-78
2022/06/13 11:04:26;;;;;;;3.60;1.88;;;;;;;;;;5050791;28;20041;-78
2022/06/13 11:06:54;;;;;;;3.33;1.70;;;;;;;;;;5050087;28;20090;-77
2022/06/13 11:09:41;;;;;;;4.03;1.73;;;;;;;;;;5051607;28;20041;-75
2022/06/13 11:12:16;;;;;;;4.85;1.63;;;;;;;;;;5051878;28;20447;-72
2022/06/13 11:23:28;;;;;;;5.68;1.98;;;;;;;;;;5067696;28;20029;-75
2022/06/13 11:25:56;;;;;;;5.32;1.92;;;;;;;;;;5071850;28;20032;-78
2022/06/13 11:28:27;;;;;;;4.20;2.20;;;;;;;;;;5068903;28;20028;-73
2022/06/13 11:31:12;;;;;;;2.97;1.80;;;;;;;;;;5071801;28;20493;-77
2022/06/13 11:33:40;;;;;;;3.63;1.73;;;;;;;;;;5071787;28;20055;-77
2022/06/13 11:36:14;;;;;;;4.63;1.70;;;;;;;;;;5071706;28;20029;-71
2022/06/13 11:39:01;;;;;;;5.28;1.80;;;;;;;;;;5072248;28;20028;-74
2022/06/13 11:41:45;;;;;;;3.60;1.92;;;;;;;;;;5075445;28;20051;-72
2022/06/13 11:44:16;;;;;;;4.25;1.80;;;;;;;;;;5074006;28;20131;-74
2022/06/13 11:46:53;;;;;;;3.42;1.90;;;;;;;;;;5075201;28;20029;-74
2022/06/13 11:49:40;;;;;;;6.93;3.35;;;;;;;;;;5075265;28;20082;-72
2022/06/13 11:55:19;;;;;;;5.00;1.70;;;;;;;;;;5074345;28;20107;-71
2022/06/13 11:57:52;;;;;;;2.58;1.73;;;;;;;;;;5074443;28;20056;-73
2022/06/13 12:00:18;;;;;;;3.58;1.90;;;;;;;;;;5075252;28;20028;-71
2022/06/13 12:02:50;;;;;;;4.97;1.85;;;;;;;;;;5075049;28;20043;-71
2022/06/13 12:05:22;;;;;;;5.38;2.47;;;;;;;;;;5074814;28;20090;-71
2022/06/13 12:08:11;;;;;;;;;;;;;;;;;;5075417;28;20028;-71
2022/06/13 12:10:41;;;;;;;3.47;1.90;;;;;;;;;;5071561;28;20424;-71
2022/06/13 12:13:15;;;;;;;3.83;1.90;;;;;;;;;;5073942;28;20499;-71
2022/06/13 12:15:53;;;;;;;8.23;2.00;;;;;;;;;;5072802;28;20082;-70
2022/06/13 12:18:29;;;;;;;4.15;1.75;;;;;;;;;;5067448;28;20063;-71
2022/06/13 12:21:05;;;;;;;3.72;2.08;;;;;;;;;;5057312;28;20045;-71
2022/06/13 12:23:55;;;;;;;8.23;2.60;;;;;;;;;;5054436;28;20498;-71
2022/06/13 12:26:31;;;;;;;2.97;1.80;;;;;;;;;;5054307;28;20032;-70
2022/06/13 12:29:30;;;;;;;4.78;2.05;;;;;;;;;;5054056;28;20035;-71
2022/06/13 12:32:15;;;;;;;5.30;1.90;;;;;;;;;;5066460;28;20071;-71
2022/06/13 12:34:55;;;;;;;3.80;1.70;;;;;;;;;;5073299;28;20044;-70
2022/06/13 12:37:46;;;;;;;3.13;1.73;;;;;;;;;;5074222;28;20514;-74
2022/06/13 12:40:38;;;;;;;4.43;1.85;;;;;;;;;;5073601;28;20479;-75
2022/06/13 12:43:23;;;;;;;5.22;2.03;;;;;;;;;;5070380;28;20107;-76
2022/06/13 12:46:10;;;;;;;4.90;1.90;;;;;;;;;;5073376;28;20028;-74
2022/06/13 12:49:09;;;;;;;5.38;2.45;;;;;;;;;;5069541;28;20535;-73
2022/06/13 12:51:56;;;;;;;5.45;1.95;;;;;;;;;;5072613;28;20044;-73
2022/06/13 12:54:43;;;;;;;4.65;2.00;;;;;;;;;;5066731;28;20041;-75
2022/06/13 12:57:27;;;;;;;5.85;1.88;;;;;;;;;;5073375;28;20447;-71
2022/06/13 13:00:35;;;;;;;2.85;1.80;;;;;;;;;;5074262;28;20475;-77
2022/06/13 13:03:19;;;;;;;6.20;1.92;;;;;;;;;;5068815;28;20533;-77
2022/06/13 13:06:00;;;;;;;2.45;1.90;;;;;;;;;;5073583;28;20040;-76
2022/06/13 13:08:43;;;;;;;4.40;1.92;;;;;;;;;;5053967;28;20507;-73
2022/06/13 13:11:11;;;;;;;;;;;;;;;;;;5058875;28;20033;-71
2022/06/13 13:13:45;;;;;;;5.00;2.00;;;;;;;;;;5065112;28;19913;-74
2022/06/13 13:16:29;;;;;;;5.70;2.00;;;;;;;;;;5071461;28;20035;-76
2022/06/13 13:19:15;;;;;;;6.00;2.05;;;;;;;;;;5065149;28;20067;-76
2022/06/13 13:22:11;;;;;;;4.00;1.70;;;;;;;;;;5065788;28;20458;-71
2022/06/13 13:24:52;;;;;;;4.40;1.88;;;;;;;;;;5073266;28;20071;-73
2022/06/13 13:27:20;;;;;;;2.97;2.00;;;;;;;;;;5073241;28;20056;-72
2022/06/13 13:30:10;;;;;;;2.65;1.88;;;;;;;;;;5073546;28;20039;-72
2022/06/13 13:33:10;;;;;;;3.38;2.15;;;;;;;;;;5053045;28;20329;-75
2022/06/13 13:35:54;;;;;;;3.15;2.17;;;;;;;;;;5069659;28;20036;-75
2022/06/13 13:38:32;;;;;;;4.50;2.30;;;;;;;;;;5071702;28;20028;-75
2022/06/13 13:41:05;;;;;;;4.57;2.22;;;;;;;;;;5069947;28;20028;-75
2022/06/13 13:43:43;;;;;;;2.72;1.67;;;;;;;;;;5071759;28;20032;-72
2022/06/13 13:46:20;;;;;;;5.53;2.10;;;;;;;;;;5072161;28;20040;-75
2022/06/13 13:48:59;;;;;;;5.20;2.03;;;;;;;;;;5071663;28;20438;-70
2022/06/13 13:51:54;;;;;;;5.55;2.15;;;;;;;;;;5071844;28;20060;-70
2022/06/13 13:54:27;;;;;;;4.15;2.15;;;;;;;;;;5071886;28;20430;-71
2022/06/13 13:57:02;;;;;;;3.60;2.30;;;;;;;;;;5071549;28;20044;-70
2022/06/13 13:59:37;;;;;;;3.58;2.00;;;;;;;;;;5072235;28;20031;-72
2022/06/13 14:02:29;;;;;;;2.58;1.60;;;;;;;;;;5069826;28;20044;-71
2022/06/13 14:05:11;;;;;;;3.25;1.92;;;;;;;;;;5071608;28;20475;-71
2022/06/13 14:07:46;;;;;;;2.95;1.85;;;;;;;;;;5071575;28;20119;-71
2022/06/13 14:10:16;;;;;;;4.05;2.17;;;;;;;;;;5071742;28;20036;-73
2022/06/13 14:13:06;;;;;;;4.00;2.00;;;;;;;;;;5071381;28;20111;-71
2022/06/13 14:15:34;;;;;;;6.03;2.10;;;;;;;;;;5071485;28;20814;-72
2022/06/13 14:18:04;;;;;;;4.25;2.30;;;;;;;;;;5069632;28;20105;-73
2022/06/13 14:20:31;;;;;;;2.92;2.33;;;;;;;;;;5071374;28;20086;-71
2022/06/13 14:23:00;;;;;;;3.72;2.42;;;;;;;;;;5071460;28;20033;-71
2022/06/13 14:25:39;;;;;;;7.57;2.30;;;;;;;;;;5070908;28;20032;-74
2022/06/13 14:28:14;;;;;;;4.18;2.20;;;;;;;;;;5071600;28;20082;-72
2022/06/13 14:31:04;;;;;;;4.32;2.45;;;;;;;;;;5067756;28;20336;-71
2022/06/13 14:36:47;;;;;;;4.57;2.10;;;;;;;;;;5059072;28;20039;-74
2022/06/13 14:39:27;;;;;;;2.85;1.85;;;;;;;;;;5070579;28;20177;-72
2022/06/13 14:42:12;;;;;;;3.55;2.30;;;;;;;;;;5070591;28;20063;-70
2022/06/13 14:44:43;;;;;;;3.45;2.20;;;;;;;;;;5070688;28;20036;-73
2022/06/13 14:47:16;;;;;;;4.77;2.20;;;;;;;;;;5069659;28;20047;-71
2022/06/13 14:49:53;;;;;;;;;;;;;;;;;;5071722;28;20082;-71
2022/06/13 14:52:30;;;;;;;3.20;2.13;;;;;;;;;;5070931;28;19939;-72
2022/06/13 14:55:05;;;;;;;6.65;2.50;;;;;;;;;;5070601;28;20075;-70
2022/06/13 14:57:30;;;;;;;4.53;2.53;;;;;;;;;;5063767;28;20483;-71
2022/06/13 15:00:20;;;;;;;2.97;2.30;;;;;;;;;;5069148;28;20059;-69
2022/06/13 15:02:58;;;;;;;7.25;2.35;;;;;;;;;;5071178;28;20155;-72
2022/06/13 15:05:30;;;;;;;4.53;2.42;;;;;;;;;;5070362;28;20086;-71
2022/06/13 15:08:26;;;;;;;3.83;2.73;;;;;;;;;;5072411;28;20041;-69
2022/06/13 15:10:55;;;;;;;5.03;2.65;;;;;;;;;;5066129;28;20138;-72
2022/06/13 15:13:25;;;;;;;4.05;2.53;;;;;;;;;;5060942;28;20039;-75
2022/06/13 15:16:01;;;;;;;5.32;2.45;;;;;;;;;;5075067;28;20488;-72
2022/06/13 15:18:31;;;;;;;6.68;2.40;;;;;;;;;;5075892;28;20055;-71
2022/06/13 15:20:59;;;;;;;4.10;2.50;;;;;;;;;;5071151;28;20045;-74
2022/06/13 15:23:33;;;;;;;4.20;2.55;;;;;;;;;;5065683;28;20054;-72
2022/06/13 15:25:59;;;;;;;3.60;2.10;;;;;;;;;;5073479;28;20384;-73
2022/06/13 15:28:25;;;;;;;4.22;2.60;;;;;;;;;;5075223;28;20031;-74
2022/06/13 15:31:07;;;;;;;5.30;2.30;;;;;;;;;;5075662;28;20025;-71
2022/06/13 15:33:34;;;;;;;8.50;2.83;;;;;;;;;;5075076;28;20040;-70
2022/06/13 15:36:02;;;;;;;6.82;2.70;;;;;;;;;;5074999;28;20021;-72
2022/06/13 15:38:33;;;;;;;4.25;2.30;;;;;;;;;;5074794;28;20507;-76
2022/06/13 15:41:02;;;;;;;4.05;2.80;;;;;;;;;;5074842;28;20029;-76
2022/06/13 15:43:36;;;;;;;9.02;3.10;;;;;;;;;;5075142;28;20029;-72
2022/06/13 15:46:03;;;;;;;6.28;2.40;;;;;;;;;;5075412;28;20467;-70
2022/06/13 15:48:29;;;;;;;4.47;2.13;;;;;;;;;;5075294;28;20024;-71
2022/06/13 15:51:22;;;;;;;8.50;2.30;;;;;;;;;;5075023;28;20040;-70
2022/06/13 15:53:49;;;;;;;5.00;2.20;;;;;;;;;;5075091;28;20076;-71
2022/06/13 15:56:32;;;;;;;5.57;2.22;;;;;;;;;;5074584;28;20107;-74